Private Wetterstation Wechselburg
Wetterdaten: Freitag, 23.10.2015
Datum Zeit Temp. +2m Bodentemp. Temp.+5cm Temp. Wind Windchill X Diff Temp. Feuchte +2m Feuchte +5cm Sonnenschein Luftdruck Regen Wind Richtung Richtung Sonnenschein Taupunkt Windchill Windben
23.10.2015 00:00 8,9 C 23,5 C 9,2 C 9,7 C 9,7 C 0,8 C 91 % 83 % 0 % 1016,5 hPa 0,0 l/m 0,5 km/h (0 Bft) S 180 0 min 7,5 C 9,7 C 0,0 km/h (0 Bft)
23.10.2015 00:05 8,9 C 23,5 C 9,2 C 9,7 C 9,7 C 0,8 C 91 % 83 % 0 % 1016,5 hPa 0,0 l/m 0,2 km/h (0 Bft) W 270 0 min 7,5 C 9,7 C 0,0 km/h (0 Bft)
23.10.2015 00:10 8,9 C 23,5 C 9,3 C 9,7 C 9,7 C 0,8 C 91 % 82 % 0 % 1016,5 hPa 0,0 l/m 0,0 km/h (0 Bft) W-NW 292 0 min 7,5 C 9,7 C 0,0 km/h (0 Bft)
23.10.2015 00:15 8,9 C 23,5 C 9,3 C 9,7 C 9,7 C 0,8 C 91 % 82 % 0 % 1016,6 hPa 0,0 l/m 0,0 km/h (0 Bft) SW 225 0 min 7,5 C 9,7 C 0,0 km/h (0 Bft)
23.10.2015 00:20 8,9 C 23,5 C 9,3 C 9,7 C 9,7 C 0,8 C 91 % 82 % 0 % 1016,6 hPa 0,0 l/m 0,2 km/h (0 Bft) W 270 0 min 7,5 C 9,7 C 0,0 km/h (0 Bft)
23.10.2015 00:25 8,9 C 23,5 C 9,3 C 9,7 C 9,7 C 0,8 C 91 % 82 % 0 % 1016,6 hPa 0,0 l/m 0,2 km/h (0 Bft) S-SW 202 0 min 7,5 C 9,7 C 0,0 km/h (0 Bft)
23.10.2015 00:30 8,9 C 23,5 C 9,3 C 9,7 C 9,7 C 0,8 C 91 % 82 % 0 % 1016,6 hPa 0,0 l/m 0,0 km/h (0 Bft) NW 315 0 min 7,5 C 9,7 C 0,0 km/h (0 Bft)
23.10.2015 00:35 8,9 C 23,5 C 9,3 C 9,7 C 9,7 C 0,8 C 91 % 82 % 0 % 1016,4 hPa 0,0 l/m 0,2 km/h (0 Bft) W-SW 247 0 min 7,5 C 9,7 C 2,9 km/h (1 Bft)
23.10.2015 00:41 8,9 C 23,5 C 9,3 C 9,7 C 9,7 C 0,8 C 91 % 82 % 0 % 1016,4 hPa 0,0 l/m 0,5 km/h (0 Bft) N 0 0 min 7,5 C 9,7 C 1,8 km/h (1 Bft)
23.10.2015 00:50 8,9 C 23,5 C 9,3 C 9,7 C 9,7 C 0,8 C 91 % 81 % 0 % 1016,4 hPa 0,0 l/m 1,6 km/h (1 Bft) W-SW 247 0 min 7,5 C 9,7 C 4,3 km/h (1 Bft)
23.10.2015 00:55 9,0 C 23,5 C 9,2 C 9,7 C 9,7 C 0,7 C 91 % 81 % 0 % 1016,5 hPa 0,0 l/m 1,6 km/h (1 Bft) S-SO 157 0 min 7,6 C 9,7 C 6,1 km/h (2 Bft)
23.10.2015 01:00 9,0 C 23,5 C 9,3 C 9,7 C 9,7 C 0,7 C 91 % 81 % 0 % 1016,5 hPa 0,0 l/m 1,6 km/h (1 Bft) W-SW 247 0 min 7,6 C 9,7 C 2,4 km/h (1 Bft)
23.10.2015 01:05 9,0 C 23,5 C 9,3 C 9,8 C 9,8 C 0,8 C 91 % 81 % 0 % 1016,5 hPa 0,0 l/m 1,4 km/h (1 Bft) SW 225 0 min 7,6 C 9,8 C 2,1 km/h (1 Bft)
23.10.2015 01:10 9,1 C 23,5 C 9,3 C 9,8 C 9,8 C 0,7 C 91 % 81 % 0 % 1016,5 hPa 0,0 l/m 1,3 km/h (1 Bft) S 180 0 min 7,7 C 9,8 C 1,8 km/h (1 Bft)
23.10.2015 01:15 9,0 C 23,5 C 9,3 C 9,8 C 9,8 C 0,8 C 91 % 81 % 0 % 1017,3 hPa 0,0 l/m 0,8 km/h (0 Bft) SO 135 0 min 7,6 C 9,8 C 6,3 km/h (2 Bft)
23.10.2015 01:20 9,1 C 23,5 C 9,3 C 9,8 C 9,8 C 0,7 C 91 % 81 % 0 % 1017,3 hPa 0,0 l/m 1,3 km/h (1 Bft) SW 225 0 min 7,7 C 9,8 C 3,1 km/h (1 Bft)
23.10.2015 01:25 9,1 C 23,5 C 9,3 C 9,8 C 9,8 C 0,7 C 91 % 81 % 0 % 1017,3 hPa 0,0 l/m 1,4 km/h (1 Bft) S-SW 202 0 min 7,7 C 9,8 C 2,7 km/h (1 Bft)
23.10.2015 01:30 9,0 C 23,5 C 9,3 C 9,9 C 9,9 C 0,9 C 91 % 81 % 0 % 1017,3 hPa 0,0 l/m 1,1 km/h (1 Bft) SW 225 0 min 7,6 C 9,9 C 3,5 km/h (1 Bft)
23.10.2015 01:35 9,1 C 23,5 C 9,4 C 9,9 C 9,9 C 0,8 C 91 % 81 % 0 % 1016,8 hPa 0,0 l/m 1,4 km/h (1 Bft) NW 315 0 min 7,7 C 9,9 C 6,8 km/h (2 Bft)
23.10.2015 01:40 9,1 C 23,5 C 9,5 C 9,9 C 9,9 C 0,8 C 91 % 81 % 0 % 1016,8 hPa 0,0 l/m 1,4 km/h (1 Bft) SW 225 0 min 7,7 C 9,9 C 0,0 km/h (0 Bft)
23.10.2015 01:45 9,1 C 23,5 C 9,5 C 9,9 C 9,9 C 0,8 C 91 % 81 % 0 % 1016,8 hPa 0,0 l/m 1,0 km/h (0 Bft) W-SW 247 0 min 7,7 C 9,9 C 5,5 km/h (1 Bft)
23.10.2015 01:50 9,1 C 23,5 C 9,5 C 9,9 C 9,9 C 0,8 C 91 % 80 % 0 % 1016,8 hPa 0,0 l/m 1,0 km/h (0 Bft) N-NW 337 0 min 7,7 C 9,9 C 2,4 km/h (1 Bft)
23.10.2015 01:55 9,2 C 23,5 C 9,5 C 9,9 C 9,9 C 0,7 C 92 % 80 % 0 % 1016,9 hPa 0,0 l/m 1,6 km/h (1 Bft) SW 225 0 min 8,0 C 9,9 C 2,9 km/h (1 Bft)
23.10.2015 02:00 9,2 C 23,5 C 9,4 C 10,0 C 10,0 C 0,8 C 92 % 80 % 0 % 1016,9 hPa 0,0 l/m 1,9 km/h (1 Bft) S-SW 202 0 min 8,0 C 10,0 C 2,6 km/h (1 Bft)
23.10.2015 02:05 9,2 C 23,4 C 9,5 C 10,0 C 10,0 C 0,8 C 92 % 80 % 0 % 1016,9 hPa 0,0 l/m 2,9 km/h (1 Bft) W-NW 292 0 min 8,0 C 10,0 C 9,2 km/h (2 Bft)
23.10.2015 02:10 9,2 C 23,5 C 9,5 C 10,0 C 10,0 C 0,8 C 92 % 80 % 0 % 1016,9 hPa 0,0 l/m 2,9 km/h (1 Bft) W-SW 247 0 min 8,0 C 10,0 C 1,9 km/h (1 Bft)
23.10.2015 02:15 9,3 C 23,5 C 9,5 C 10,0 C 10,0 C 0,7 C 92 % 80 % 0 % 1016,9 hPa 0,0 l/m 2,3 km/h (1 Bft) SW 225 0 min 8,1 C 10,0 C 3,7 km/h (1 Bft)
23.10.2015 02:20 9,2 C 23,5 C 9,5 C 10,0 C 10,0 C 0,8 C 92 % 80 % 0 % 1016,9 hPa 0,0 l/m 1,6 km/h (1 Bft) W 270 0 min 8,0 C 10,0 C 1,6 km/h (1 Bft)
23.10.2015 02:25 9,2 C 23,5 C 9,5 C 9,9 C 9,9 C 0,7 C 92 % 80 % 0 % 1016,9 hPa 0,7 l/m 1,4 km/h (1 Bft) W-SW 247 0 min 8,0 C 9,9 C 3,4 km/h (1 Bft)
23.10.2015 02:30 9,3 C 23,5 C 9,4 C 9,9 C 9,9 C 0,6 C 92 % 80 % 0 % 1016,9 hPa 0,0 l/m 1,1 km/h (1 Bft) W 270 0 min 8,1 C 9,9 C 1,8 km/h (1 Bft)
23.10.2015 02:35 9,2 C 23,5 C 9,4 C 9,9 C 9,9 C 0,7 C 91 % 80 % 0 % 1017,1 hPa 0,0 l/m 1,1 km/h (1 Bft) S-SW 202 0 min 7,8 C 9,9 C 0,0 km/h (0 Bft)
23.10.2015 02:40 9,1 C 23,5 C 9,5 C 9,9 C 9,9 C 0,8 C 91 % 80 % 0 % 1017,1 hPa 0,0 l/m 1,0 km/h (0 Bft) S 180 0 min 7,7 C 9,9 C 3,7 km/h (1 Bft)
23.10.2015 02:45 9,1 C 23,5 C 9,5 C 9,8 C 9,8 C 0,7 C 91 % 80 % 0 % 1017,1 hPa 0,0 l/m 0,8 km/h (0 Bft) S-SW 202 0 min 7,7 C 9,8 C 2,9 km/h (1 Bft)
23.10.2015 02:50 9,1 C 23,5 C 9,5 C 9,8 C 9,8 C 0,7 C 91 % 80 % 0 % 1017,1 hPa 0,0 l/m 0,8 km/h (0 Bft) W 270 0 min 7,7 C 9,8 C 1,6 km/h (1 Bft)
23.10.2015 02:55 9,1 C 23,5 C 9,5 C 9,8 C 9,8 C 0,7 C 92 % 80 % 0 % 1017,5 hPa 0,0 l/m 0,8 km/h (0 Bft) W-SW 247 0 min 7,9 C 9,8 C 6,3 km/h (2 Bft)
23.10.2015 03:00 9,1 C 23,5 C 9,5 C 9,8 C 9,8 C 0,7 C 92 % 80 % 0 % 1017,5 hPa 0,0 l/m 0,8 km/h (0 Bft) S-SW 202 0 min 7,9 C 9,8 C 0,0 km/h (0 Bft)
23.10.2015 03:05 9,1 C 23,5 C 9,5 C 9,9 C 9,9 C 0,8 C 92 % 80 % 0 % 1017,5 hPa 0,0 l/m 0,6 km/h (0 Bft) SW 225 0 min 7,9 C 9,9 C 2,6 km/h (1 Bft)
23.10.2015 03:10 9,1 C 23,5 C 9,5 C 9,9 C 9,9 C 0,8 C 92 % 80 % 0 % 1017,5 hPa 0,0 l/m 0,2 km/h (0 Bft) SW 225 0 min 7,9 C 9,9 C 0,0 km/h (0 Bft)
23.10.2015 03:15 9,1 C 23,5 C 9,5 C 9,8 C 9,8 C 0,7 C 92 % 80 % 0 % 1017,5 hPa 0,0 l/m 0,3 km/h (0 Bft) W 270 0 min 7,9 C 9,8 C 0,0 km/h (0 Bft)
23.10.2015 03:20 9,1 C 23,5 C 9,5 C 9,8 C 9,8 C 0,7 C 92 % 80 % 0 % 1017,5 hPa 0,0 l/m 0,3 km/h (0 Bft) S 180 0 min 7,9 C 9,8 C 0,0 km/h (0 Bft)
23.10.2015 03:25 9,1 C 23,5 C 9,5 C 9,8 C 9,8 C 0,7 C 92 % 80 % 0 % 1017,5 hPa 0,0 l/m 0,3 km/h (0 Bft) S 180 0 min 7,9 C 9,8 C 0,0 km/h (0 Bft)
23.10.2015 03:30 9,0 C 23,4 C 9,4 C 9,7 C 9,7 C 0,7 C 92 % 80 % 0 % 1017,5 hPa 0,0 l/m 0,3 km/h (0 Bft) W-SW 247 0 min 7,8 C 9,7 C 0,0 km/h (0 Bft)
23.10.2015 03:35 9,1 C 23,4 C 9,3 C 9,6 C 9,6 C 0,5 C 91 % 81 % 0 % 1018,3 hPa 0,0 l/m 0,3 km/h (0 Bft) NW 315 0 min 7,7 C 9,6 C 0,0 km/h (0 Bft)
23.10.2015 03:41 9,1 C 23,4 C 9,3 C 9,6 C 9,6 C 0,5 C 91 % 81 % 0 % 1018,3 hPa 0,0 l/m 0,3 km/h (0 Bft) N 0 0 min 7,7 C 9,6 C 0,0 km/h (0 Bft)
23.10.2015 03:50 8,9 C 23,4 C 9,3 C 9,6 C 9,6 C 0,7 C 91 % 81 % 0 % 1018,3 hPa 0,0 l/m 0,2 km/h (0 Bft) S 180 0 min 7,5 C 9,6 C 0,0 km/h (0 Bft)
23.10.2015 03:55 8,8 C 23,4 C 9,2 C 9,5 C 9,5 C 0,7 C 91 % 81 % 0 % 1018,0 hPa 0,0 l/m 0,2 km/h (0 Bft) S 180 0 min 7,4 C 9,5 C 0,0 km/h (0 Bft)
23.10.2015 04:00 8,8 C 23,4 C 9,2 C 9,4 C 9,4 C 0,6 C 91 % 81 % 0 % 1018,0 hPa 0,0 l/m 0,2 km/h (0 Bft) W 270 0 min 7,4 C 9,4 C 0,0 km/h (0 Bft)
23.10.2015 04:05 8,8 C 23,4 C 9,3 C 9,4 C 9,4 C 0,6 C 91 % 81 % 0 % 1018,0 hPa 0,0 l/m 0,5 km/h (0 Bft) SW 225 0 min 7,4 C 9,4 C 0,0 km/h (0 Bft)
23.10.2015 04:10 8,8 C 23,4 C 9,2 C 9,4 C 9,4 C 0,6 C 91 % 81 % 0 % 1018,0 hPa 0,0 l/m 0,6 km/h (0 Bft) W-SW 247 0 min 7,4 C 9,4 C 2,1 km/h (1 Bft)
23.10.2015 04:15 8,7 C 23,4 C 9,2 C 9,3 C 9,3 C 0,6 C 91 % 81 % 0 % 1017,9 hPa 0,0 l/m 0,6 km/h (0 Bft) S 180 0 min 7,3 C 9,3 C 0,0 km/h (0 Bft)
23.10.2015 04:20 8,7 C 23,4 C 9,1 C 9,2 C 9,2 C 0,5 C 91 % 81 % 0 % 1017,9 hPa 0,0 l/m 0,6 km/h (0 Bft) S 180 0 min 7,3 C 9,2 C 0,0 km/h (0 Bft)
23.10.2015 04:25 8,6 C 23,5 C 8,9 C 8,8 C 8,8 C 0,2 C 91 % 81 % 0 % 1017,9 hPa 0,0 l/m 0,3 km/h (0 Bft) W-NW 292 0 min 7,2 C 8,8 C 2,3 km/h (1 Bft)
23.10.2015 04:30 8,5 C 23,5 C 8,9 C 8,7 C 8,7 C 0,2 C 91 % 81 % 0 % 1017,9 hPa 0,0 l/m 0,5 km/h (0 Bft) S 180 0 min 7,1 C 8,7 C 0,0 km/h (0 Bft)
23.10.2015 04:35 8,4 C 23,5 C 8,8 C 8,5 C 8,5 C 0,1 C 91 % 81 % 0 % 1018,1 hPa 0,0 l/m 0,8 km/h (0 Bft) N-NW 337 0 min 7,0 C 8,5 C 0,0 km/h (0 Bft)
23.10.2015 04:40 8,4 C 23,5 C 8,7 C 8,4 C 8,4 C 0,0 C 91 % 82 % 0 % 1018,1 hPa 0,0 l/m 0,5 km/h (0 Bft) SW 225 0 min 7,0 C 8,4 C 3,5 km/h (1 Bft)
23.10.2015 04:45 8,2 C 23,5 C 8,5 C 8,2 C 8,2 C 0,0 C 91 % 82 % 0 % 1018,1 hPa 0,0 l/m 0,3 km/h (0 Bft) SW 225 0 min 6,8 C 8,2 C 0,0 km/h (0 Bft)
23.10.2015 04:50 8,1 C 23,5 C 8,5 C 8,2 C 8,2 C 0,1 C 91 % 82 % 0 % 1018,1 hPa 0,0 l/m 0,5 km/h (0 Bft) N 360 0 min 6,7 C 8,2 C 1,6 km/h (1 Bft)
23.10.2015 04:55 8,1 C 23,5 C 8,5 C 8,2 C 8,2 C 0,1 C 91 % 82 % 0 % 1018,7 hPa 0,0 l/m 0,3 km/h (0 Bft) W-SW 247 0 min 6,7 C 8,2 C 0,0 km/h (0 Bft)
23.10.2015 05:00 8,0 C 23,5 C 8,5 C 8,0 C 8,0 C 0,0 C 91 % 82 % 0 % 1018,7 hPa 0,0 l/m 0,2 km/h (0 Bft) S-SW 202 0 min 6,6 C 8,0 C 2,1 km/h (1 Bft)
23.10.2015 05:05 7,9 C 23,5 C 8,4 C 7,9 C 7,9 C 0,0 C 91 % 82 % 0 % 1018,7 hPa 0,0 l/m 0,0 km/h (0 Bft) W-NW 292 0 min 6,5 C 7,9 C 0,0 km/h (0 Bft)
23.10.2015 05:10 7,9 C 23,6 C 8,5 C 7,9 C 7,9 C 0,0 C 91 % 82 % 0 % 1018,7 hPa 0,0 l/m 0,2 km/h (0 Bft) W-SW 247 0 min 6,5 C 7,9 C 0,0 km/h (0 Bft)
23.10.2015 05:15 7,9 C 23,6 C 8,4 C 7,9 C 7,9 C 0,0 C 91 % 81 % 0 % 1018,8 hPa 0,0 l/m 0,2 km/h (0 Bft) W-NW 292 0 min 6,5 C 7,9 C 0,0 km/h (0 Bft)
23.10.2015 05:20 7,9 C 23,5 C 8,4 C 7,9 C 7,9 C 0,0 C 91 % 81 % 0 % 1018,8 hPa 0,0 l/m 0,3 km/h (0 Bft) S-SW 202 0 min 6,5 C 7,9 C 0,0 km/h (0 Bft)
23.10.2015 05:25 7,9 C 23,5 C 8,3 C 7,9 C 7,9 C 0,0 C 91 % 81 % 0 % 1018,8 hPa 0,0 l/m 0,5 km/h (0 Bft) S-SW 202 0 min 6,5 C 7,9 C 2,7 km/h (1 Bft)
23.10.2015 05:30 7,9 C 23,5 C 8,3 C 7,9 C 7,9 C 0,0 C 91 % 81 % 0 % 1018,8 hPa 0,0 l/m 0,5 km/h (0 Bft) S 180 0 min 6,5 C 7,9 C 0,0 km/h (0 Bft)
23.10.2015 05:35 7,7 C 23,5 C 7,9 C 7,7 C 7,7 C 0,0 C 91 % 82 % 0 % 1018,4 hPa 0,0 l/m 0,5 km/h (0 Bft) S-SW 202 0 min 6,3 C 7,7 C 0,0 km/h (0 Bft)
23.10.2015 05:40 7,6 C 23,5 C 7,8 C 7,6 C 7,6 C 0,0 C 91 % 82 % 0 % 1018,4 hPa 0,0 l/m 0,2 km/h (0 Bft) S-SW 202 0 min 6,2 C 7,6 C 0,0 km/h (0 Bft)
23.10.2015 05:45 7,6 C 23,5 C 8,1 C 7,7 C 7,7 C 0,1 C 91 % 82 % 0 % 1018,4 hPa 0,0 l/m 0,3 km/h (0 Bft) SW 225 0 min 6,2 C 7,7 C 1,9 km/h (1 Bft)
23.10.2015 05:50 7,6 C 23,5 C 8,1 C 8,1 C 8,1 C 0,5 C 91 % 81 % 0 % 1018,4 hPa 0,0 l/m 0,3 km/h (0 Bft) W-SW 247 0 min 6,2 C 8,1 C 0,0 km/h (0 Bft)
23.10.2015 05:55 7,8 C 23,5 C 8,3 C 8,2 C 8,2 C 0,4 C 91 % 80 % 0 % 1018,9 hPa 0,0 l/m 0,6 km/h (0 Bft) S-SW 202 0 min 6,4 C 8,2 C 0,0 km/h (0 Bft)
23.10.2015 06:00 7,8 C 23,5 C 8,3 C 8,3 C 8,3 C 0,5 C 91 % 80 % 0 % 1018,9 hPa 0,0 l/m 1,0 km/h (0 Bft) S-SW 202 0 min 6,4 C 8,3 C 2,6 km/h (1 Bft)
23.10.2015 06:05 7,9 C 23,4 C 8,3 C 8,4 C 8,4 C 0,5 C 91 % 80 % 0 % 1018,9 hPa 0,0 l/m 1,1 km/h (1 Bft) W 270 0 min 6,5 C 8,4 C 0,0 km/h (0 Bft)
23.10.2015 06:10 7,8 C 23,4 C 8,3 C 8,5 C 8,5 C 0,7 C 91 % 80 % 0 % 1018,9 hPa 0,0 l/m 1,1 km/h (1 Bft) W 270 0 min 6,4 C 8,5 C 2,1 km/h (1 Bft)
23.10.2015 06:15 7,9 C 23,4 C 8,4 C 8,6 C 8,6 C 0,7 C 91 % 80 % 0 % 1018,9 hPa 0,0 l/m 1,0 km/h (0 Bft) SW 225 0 min 6,5 C 8,6 C 0,0 km/h (0 Bft)
23.10.2015 06:20 7,9 C 23,4 C 8,4 C 8,6 C 8,6 C 0,7 C 91 % 80 % 0 % 1018,9 hPa 0,0 l/m 0,8 km/h (0 Bft) W-SW 247 0 min 6,5 C 8,6 C 0,0 km/h (0 Bft)
23.10.2015 06:25 7,9 C 23,4 C 8,5 C 8,6 C 8,6 C 0,7 C 91 % 80 % 0 % 1018,9 hPa 0,0 l/m 0,6 km/h (0 Bft) W-NW 292 0 min 6,5 C 8,6 C 1,6 km/h (1 Bft)
23.10.2015 06:30 7,9 C 23,4 C 8,5 C 8,6 C 8,6 C 0,7 C 92 % 79 % 0 % 1018,9 hPa 0,0 l/m 0,6 km/h (0 Bft) W-SW 247 0 min 6,7 C 8,6 C 0,0 km/h (0 Bft)
23.10.2015 06:35 7,9 C 23,4 C 8,4 C 8,6 C 8,6 C 0,7 C 92 % 79 % 0 % 1020,2 hPa 0,0 l/m 0,8 km/h (0 Bft) SW 225 0 min 6,7 C 8,6 C 0,0 km/h (0 Bft)
23.10.2015 06:41 7,9 C 23,4 C 8,4 C 8,6 C 8,6 C 0,7 C 92 % 79 % 0 % 1020,2 hPa 0,0 l/m 0,8 km/h (0 Bft) N 0 0 min 6,7 C 8,6 C 1,6 km/h (1 Bft)
23.10.2015 06:50 7,9 C 23,3 C 8,4 C 8,6 C 8,6 C 0,7 C 92 % 80 % 0 % 1020,2 hPa 0,0 l/m 0,6 km/h (0 Bft) SW 225 0 min 6,7 C 8,6 C 0,0 km/h (0 Bft)
23.10.2015 06:55 7,9 C 23,3 C 8,5 C 8,6 C 8,6 C 0,7 C 92 % 80 % 0 % 1020,2 hPa 0,0 l/m 1,0 km/h (0 Bft) W-SW 247 0 min 6,7 C 8,6 C 0,0 km/h (0 Bft)
23.10.2015 07:00 7,9 C 23,3 C 8,5 C 8,6 C 8,6 C 0,7 C 92 % 80 % 0 % 1020,2 hPa 0,0 l/m 0,8 km/h (0 Bft) SW 225 0 min 6,7 C 8,6 C 0,0 km/h (0 Bft)
23.10.2015 07:05 7,9 C 23,3 C 8,5 C 8,6 C 8,6 C 0,7 C 92 % 80 % 0 % 1020,2 hPa 0,0 l/m 1,0 km/h (0 Bft) SW 225 0 min 6,7 C 8,6 C 0,0 km/h (0 Bft)
23.10.2015 07:10 7,9 C 23,3 C 8,5 C 8,6 C 8,6 C 0,7 C 92 % 80 % 0 % 1020,2 hPa 0,0 l/m 0,8 km/h (0 Bft) W-SW 247 0 min 6,7 C 8,6 C 0,0 km/h (0 Bft)
23.10.2015 07:15 7,9 C 23,3 C 8,5 C 8,6 C 8,6 C 0,7 C 92 % 80 % 0 % 1020,2 hPa 0,0 l/m 0,5 km/h (0 Bft) S 180 0 min 6,7 C 8,6 C 0,0 km/h (0 Bft)
23.10.2015 07:20 7,9 C 23,3 C 8,5 C 8,6 C 8,6 C 0,7 C 92 % 80 % 0 % 1020,2 hPa 0,0 l/m 0,6 km/h (0 Bft) W-SW 247 0 min 6,7 C 8,6 C 0,0 km/h (0 Bft)
23.10.2015 07:25 7,9 C 23,3 C 8,5 C 8,5 C 8,5 C 0,6 C 91 % 80 % 0 % 1020,2 hPa 0,0 l/m 0,5 km/h (0 Bft) S 180 0 min 6,5 C 8,5 C 0,0 km/h (0 Bft)
23.10.2015 07:30 7,9 C 23,3 C 8,6 C 8,5 C 8,5 C 0,6 C 91 % 80 % 0 % 1020,2 hPa 0,0 l/m 0,3 km/h (0 Bft) SW 225 0 min 6,5 C 8,5 C 0,0 km/h (0 Bft)
23.10.2015 07:35 7,8 C 23,3 C 8,6 C 8,5 C 8,5 C 0,7 C 92 % 81 % 0 % 1020,6 hPa 0,0 l/m 0,6 km/h (0 Bft) W-NW 292 0 min 6,6 C 8,5 C 2,4 km/h (1 Bft)
23.10.2015 07:40 7,9 C 23,3 C 8,5 C 8,5 C 8,5 C 0,6 C 91 % 81 % 0 % 1020,6 hPa 0,0 l/m 1,0 km/h (0 Bft) SW 225 0 min 6,5 C 8,5 C 2,9 km/h (1 Bft)
23.10.2015 07:45 7,9 C 23,3 C 8,6 C 8,5 C 8,5 C 0,6 C 92 % 81 % 0 % 1020,6 hPa 0,0 l/m 1,8 km/h (1 Bft) W-SW 247 0 min 6,7 C 8,5 C 0,0 km/h (0 Bft)
23.10.2015 07:50 7,9 C 23,3 C 8,5 C 8,5 C 8,5 C 0,6 C 91 % 81 % 0 % 1020,6 hPa 0,0 l/m 1,8 km/h (1 Bft) W-SW 247 0 min 6,5 C 8,5 C 0,0 km/h (0 Bft)
23.10.2015 07:55 7,9 C 23,2 C 8,6 C 8,5 C 8,5 C 0,6 C 91 % 81 % 0 % 1019,9 hPa 0,0 l/m 0,8 km/h (0 Bft) W 270 0 min 6,5 C 8,5 C 2,4 km/h (1 Bft)
23.10.2015 08:00 7,9 C 23,2 C 8,6 C 8,6 C 8,6 C 0,7 C 91 % 81 % 18 % 1019,9 hPa 0,0 l/m 1,0 km/h (0 Bft) SW 225 5 min 6,5 C 8,6 C 3,1 km/h (1 Bft)
23.10.2015 08:05 7,9 C 23,2 C 8,6 C 8,6 C 8,6 C 0,7 C 91 % 81 % 18 % 1019,9 hPa 0,0 l/m 0,6 km/h (0 Bft) W 270 5 min 6,5 C 8,6 C 0,0 km/h (0 Bft)
23.10.2015 08:10 7,9 C 23,2 C 8,7 C 8,6 C 8,6 C 0,7 C 91 % 82 % 18 % 1019,9 hPa 0,0 l/m 0,3 km/h (0 Bft) W-SW 247 5 min 6,5 C 8,6 C 0,0 km/h (0 Bft)
23.10.2015 08:15 7,9 C 23,2 C 8,7 C 8,6 C 8,6 C 0,7 C 91 % 82 % 18 % 1020,2 hPa 0,0 l/m 0,8 km/h (0 Bft) S 180 5 min 6,5 C 8,6 C 4,5 km/h (1 Bft)
23.10.2015 08:20 7,9 C 23,2 C 8,7 C 8,7 C 8,7 C 0,8 C 91 % 82 % 21 % 1020,2 hPa 0,0 l/m 1,0 km/h (0 Bft) S 180 5 min 6,5 C 8,7 C 0,0 km/h (0 Bft)
23.10.2015 08:25 7,9 C 23,2 C 8,6 C 8,9 C 8,9 C 1,0 C 91 % 82 % 26 % 1020,2 hPa 0,0 l/m 0,6 km/h (0 Bft) S 180 5 min 6,5 C 8,9 C 2,4 km/h (1 Bft)
23.10.2015 08:30 7,9 C 23,2 C 8,6 C 8,9 C 8,9 C 1,0 C 91 % 82 % 26 % 1020,2 hPa 0,0 l/m 0,6 km/h (0 Bft) W 270 5 min 6,5 C 8,9 C 0,0 km/h (0 Bft)
23.10.2015 08:35 7,9 C 23,2 C 8,7 C 9,1 C 9,1 C 1,2 C 91 % 83 % 32 % 1020,2 hPa 0,0 l/m 0,6 km/h (0 Bft) W-SW 247 5 min 6,5 C 9,1 C 2,3 km/h (1 Bft)
23.10.2015 08:40 7,9 C 23,2 C 8,7 C 9,2 C 9,2 C 1,3 C 91 % 83 % 34 % 1020,2 hPa 0,0 l/m 0,8 km/h (0 Bft) SW 225 5 min 6,5 C 9,2 C 1,6 km/h (1 Bft)
23.10.2015 08:45 8,0 C 23,2 C 8,8 C 9,3 C 9,3 C 1,3 C 91 % 83 % 34 % 1020,2 hPa 0,0 l/m 1,1 km/h (1 Bft) SO 135 0 min 6,6 C 9,3 C 0,0 km/h (0 Bft)
23.10.2015 08:50 8,0 C 23,2 C 8,9 C 9,4 C 9,4 C 1,4 C 91 % 83 % 37 % 1020,2 hPa 0,0 l/m 1,3 km/h (1 Bft) SW 225 0 min 6,6 C 9,4 C 3,4 km/h (1 Bft)
23.10.2015 08:55 8,1 C 23,2 C 8,8 C 9,4 C 9,4 C 1,3 C 91 % 84 % 34 % 1020,9 hPa 0,0 l/m 1,0 km/h (0 Bft) S 180 0 min 6,7 C 9,4 C 2,6 km/h (1 Bft)
23.10.2015 09:00 8,0 C 23,2 C 8,8 C 9,5 C 9,5 C 1,5 C 91 % 84 % 39 % 1020,9 hPa 0,0 l/m 0,8 km/h (0 Bft) W-SW 247 0 min 6,6 C 9,5 C 0,0 km/h (0 Bft)
23.10.2015 09:05 8,1 C 23,0 C 8,9 C 9,7 C 9,7 C 1,6 C 91 % 84 % 42 % 1020,9 hPa 0,0 l/m 1,1 km/h (1 Bft) W-SW 247 0 min 6,7 C 9,7 C 1,6 km/h (1 Bft)
23.10.2015 09:10 8,1 C 23,0 C 9,1 C 9,8 C 9,8 C 1,7 C 91 % 84 % 45 % 1020,9 hPa 0,0 l/m 1,0 km/h (0 Bft) S 180 0 min 6,7 C 9,8 C 3,7 km/h (1 Bft)
23.10.2015 09:15 8,3 C 23,0 C 9,0 C 10,0 C 10,0 C 1,7 C 91 % 84 % 45 % 1020,9 hPa 0,0 l/m 1,4 km/h (1 Bft) SW 225 0 min 6,9 C 10,0 C 4,5 km/h (1 Bft)
23.10.2015 09:20 8,3 C 23,0 C 9,2 C 10,1 C 10,1 C 1,8 C 91 % 84 % 47 % 1020,9 hPa 0,0 l/m 1,9 km/h (1 Bft) SW 225 0 min 6,9 C 10,1 C 3,1 km/h (1 Bft)
23.10.2015 09:25 8,4 C 23,0 C 9,2 C 10,3 C 10,3 C 1,9 C 91 % 85 % 50 % 1020,9 hPa 0,0 l/m 1,9 km/h (1 Bft) S 180 0 min 7,0 C 10,3 C 3,4 km/h (1 Bft)
23.10.2015 09:30 8,5 C 23,0 C 9,3 C 10,4 C 10,4 C 1,9 C 91 % 85 % 50 % 1020,9 hPa 0,0 l/m 1,8 km/h (1 Bft) S-SO 157 0 min 7,1 C 10,4 C 2,7 km/h (1 Bft)
23.10.2015 09:35 8,7 C 23,0 C 9,4 C 10,6 C 10,6 C 1,9 C 91 % 85 % 50 % 1021,0 hPa 0,0 l/m 1,8 km/h (1 Bft) SW 225 0 min 7,3 C 10,6 C 5,0 km/h (1 Bft)
23.10.2015 09:41 8,7 C 23,0 C 9,5 C 10,7 C 10,7 C 2,0 C 91 % 85 % 53 % 1021,0 hPa 0,0 l/m 1,9 km/h (1 Bft) N 0 0 min 7,3 C 10,7 C 1,8 km/h (1 Bft)
23.10.2015 09:50 8,8 C 23,0 C 9,7 C 11,0 C 11,0 C 2,2 C 91 % 85 % 58 % 1021,0 hPa 0,0 l/m 2,4 km/h (1 Bft) W-SW 247 0 min 7,4 C 11,0 C 2,4 km/h (1 Bft)
23.10.2015 09:55 8,9 C 23,0 C 9,6 C 11,1 C 11,1 C 2,2 C 90 % 86 % 58 % 1021,6 hPa 0,0 l/m 2,4 km/h (1 Bft) S-SO 157 0 min 7,4 C 11,1 C 3,9 km/h (1 Bft)
23.10.2015 10:00 8,9 C 23,0 C 9,7 C 11,0 C 11,0 C 2,1 C 90 % 86 % 55 % 1021,6 hPa 0,0 l/m 2,1 km/h (1 Bft) S-SO 157 0 min 7,4 C 11,0 C 1,6 km/h (1 Bft)
23.10.2015 10:05 9,0 C 23,0 C 9,9 C 11,1 C 11,1 C 2,1 C 90 % 87 % 55 % 1021,6 hPa 0,0 l/m 2,1 km/h (1 Bft) W-SW 247 0 min 7,4 C 11,1 C 5,1 km/h (1 Bft)
23.10.2015 10:10 9,1 C 23,0 C 9,9 C 11,1 C 11,1 C 2,0 C 90 % 87 % 53 % 1021,6 hPa 0,0 l/m 2,4 km/h (1 Bft) O-NO 67 0 min 7,5 C 11,1 C 3,5 km/h (1 Bft)
23.10.2015 10:15 9,1 C 23,0 C 9,8 C 11,0 C 11,0 C 1,9 C 90 % 87 % 50 % 1021,7 hPa 0,0 l/m 2,6 km/h (1 Bft) W-SW 247 0 min 7,5 C 11,0 C 7,6 km/h (2 Bft)
23.10.2015 10:20 9,0 C 23,0 C 10,0 C 11,1 C 11,1 C 2,1 C 89 % 87 % 55 % 1021,7 hPa 0,0 l/m 2,6 km/h (1 Bft) W-SW 247 0 min 7,3 C 11,1 C 2,1 km/h (1 Bft)
23.10.2015 10:25 9,1 C 23,0 C 10,0 C 11,2 C 11,2 C 2,1 C 89 % 87 % 55 % 1021,7 hPa 0,0 l/m 2,4 km/h (1 Bft) S-SW 202 0 min 7,4 C 11,2 C 1,9 km/h (1 Bft)
23.10.2015 10:30 9,3 C 23,0 C 10,1 C 11,3 C 11,3 C 2,0 C 89 % 88 % 53 % 1021,7 hPa 0,0 l/m 1,9 km/h (1 Bft) W 270 0 min 7,6 C 11,3 C 3,1 km/h (1 Bft)
23.10.2015 10:35 9,3 C 22,9 C 10,3 C 11,9 C 11,9 C 2,6 C 89 % 88 % 68 % 1021,5 hPa 0,0 l/m 2,4 km/h (1 Bft) S 180 0 min 7,6 C 11,9 C 3,7 km/h (1 Bft)
23.10.2015 10:40 9,4 C 22,9 C 10,5 C 12,2 C 12,2 C 2,8 C 88 % 88 % 74 % 1021,5 hPa 0,0 l/m 3,1 km/h (1 Bft) W-SW 247 0 min 7,5 C 12,2 C 4,2 km/h (1 Bft)
23.10.2015 10:45 9,6 C 22,9 C 10,6 C 12,5 C 12,5 C 2,9 C 88 % 89 % 76 % 1021,5 hPa 0,0 l/m 2,9 km/h (1 Bft) S 180 0 min 7,7 C 12,5 C 3,1 km/h (1 Bft)
23.10.2015 10:50 9,6 C 22,9 C 10,5 C 12,7 C 12,7 C 3,1 C 87 % 89 % 82 % 1021,5 hPa 0,0 l/m 2,9 km/h (1 Bft) W 270 0 min 7,5 C 12,7 C 2,7 km/h (1 Bft)
23.10.2015 10:55 9,7 C 22,9 C 10,7 C 12,8 C 12,8 C 3,1 C 86 % 89 % 82 % 1021,3 hPa 0,0 l/m 2,7 km/h (1 Bft) NW 315 0 min 7,5 C 12,8 C 0,0 km/h (0 Bft)
23.10.2015 11:00 9,9 C 22,9 C 10,6 C 12,8 C 12,8 C 2,9 C 86 % 89 % 76 % 1021,3 hPa 0,0 l/m 2,7 km/h (1 Bft) S-SO 157 0 min 7,7 C 12,8 C 3,2 km/h (1 Bft)
23.10.2015 11:05 9,8 C 22,9 C 10,7 C 12,5 C 12,5 C 2,7 C 85 % 89 % 71 % 1021,3 hPa 0,0 l/m 2,7 km/h (1 Bft) S 180 0 min 7,4 C 12,5 C 5,5 km/h (1 Bft)
23.10.2015 11:10 9,9 C 22,9 C 10,5 C 12,2 C 12,2 C 2,3 C 85 % 90 % 61 % 1021,3 hPa 0,0 l/m 3,2 km/h (1 Bft) W-SW 247 0 min 7,5 C 12,2 C 8,7 km/h (2 Bft)
23.10.2015 11:15 9,9 C 22,9 C 10,5 C 12,0 C 12,0 C 2,1 C 84 % 90 % 55 % 1021,6 hPa 0,0 l/m 3,9 km/h (1 Bft) SW 225 0 min 7,3 C 12,0 C 10,0 km/h (2 Bft)
23.10.2015 11:20 9,9 C 22,9 C 10,5 C 11,9 C 11,9 C 2,0 C 84 % 90 % 53 % 1021,6 hPa 0,0 l/m 4,0 km/h (1 Bft) S-SO 157 0 min 7,3 C 11,9 C 3,4 km/h (1 Bft)
23.10.2015 11:25 10,0 C 22,9 C 10,5 C 11,9 C 11,9 C 1,9 C 83 % 90 % 50 % 1021,6 hPa 0,0 l/m 3,4 km/h (1 Bft) W 270 0 min 7,2 C 11,9 C 3,2 km/h (1 Bft)
23.10.2015 11:30 10,1 C 22,9 C 10,6 C 12,0 C 12,0 C 1,9 C 82 % 90 % 50 % 1021,6 hPa 0,0 l/m 3,5 km/h (1 Bft) SW 225 0 min 7,2 C 12,0 C 7,9 km/h (2 Bft)
23.10.2015 11:35 10,1 C 22,9 C 10,7 C 12,2 C 12,2 C 2,1 C 82 % 90 % 55 % 1021,9 hPa 0,0 l/m 3,9 km/h (1 Bft) S 180 0 min 7,2 C 12,2 C 8,0 km/h (2 Bft)
23.10.2015 11:40 10,2 C 22,9 C 10,7 C 12,5 C 12,5 C 2,3 C 82 % 90 % 61 % 1021,9 hPa 0,0 l/m 4,0 km/h (1 Bft) S-SW 202 0 min 7,3 C 12,5 C 4,2 km/h (1 Bft)
23.10.2015 11:45 10,4 C 22,9 C 10,8 C 13,0 C 13,0 C 2,6 C 81 % 90 % 68 % 1021,9 hPa 0,0 l/m 3,4 km/h (1 Bft) SW 225 0 min 7,3 C 13,0 C 5,8 km/h (2 Bft)
23.10.2015 11:50 10,7 C 22,9 C 10,8 C 13,0 C 13,0 C 2,3 C 80 % 90 % 61 % 1021,9 hPa 0,0 l/m 3,4 km/h (1 Bft) W-SW 247 0 min 7,4 C 13,0 C 4,8 km/h (1 Bft)
23.10.2015 11:55 10,8 C 22,9 C 10,8 C 12,9 C 12,9 C 2,1 C 79 % 89 % 55 % 1022,2 hPa 0,0 l/m 3,9 km/h (1 Bft) W 270 0 min 7,3 C 12,9 C 13,5 km/h (3 Bft)
23.10.2015 12:00 10,9 C 22,9 C 10,9 C 13,2 C 13,2 C 2,3 C 79 % 89 % 61 % 1022,2 hPa 0,0 l/m 3,9 km/h (1 Bft) S 180 0 min 7,4 C 13,2 C 4,3 km/h (1 Bft)
23.10.2015 12:05 11,2 C 22,9 C 11,1 C 13,2 C 13,2 C 2,0 C 78 % 88 % 53 % 1022,2 hPa 0,0 l/m 4,3 km/h (1 Bft) SW 225 0 min 7,5 C 13,2 C 6,3 km/h (2 Bft)
23.10.2015 12:10 11,5 C 22,9 C 11,0 C 13,3 C 13,3 C 1,8 C 77 % 88 % 47 % 1022,2 hPa 0,0 l/m 4,2 km/h (1 Bft) N 360 0 min 7,6 C 13,3 C 1,6 km/h (1 Bft)
23.10.2015 12:15 11,6 C 22,9 C 11,4 C 13,9 C 13,9 C 2,3 C 77 % 89 % 61 % 1021,8 hPa 0,0 l/m 3,1 km/h (1 Bft) NW 315 0 min 7,7 C 13,9 C 2,1 km/h (1 Bft)
23.10.2015 12:20 11,9 C 22,9 C 11,6 C 14,5 C 14,5 C 2,6 C 76 % 88 % 68 % 1021,8 hPa 0,0 l/m 2,9 km/h (1 Bft) SW 225 0 min 7,8 C 14,5 C 9,7 km/h (2 Bft)
23.10.2015 12:25 12,1 C 23,0 C 11,5 C 14,3 C 14,3 C 2,2 C 75 % 88 % 58 % 1021,8 hPa 0,0 l/m 3,9 km/h (1 Bft) W-NW 292 0 min 7,8 C 14,3 C 0,0 km/h (0 Bft)
23.10.2015 12:30 12,1 C 23,0 C 11,5 C 14,3 C 14,3 C 2,2 C 75 % 88 % 58 % 1021,8 hPa 0,0 l/m 3,5 km/h (1 Bft) W 270 0 min 7,8 C 14,3 C 2,1 km/h (1 Bft)
23.10.2015 12:35 12,2 C 22,9 C 11,5 C 14,0 C 14,0 C 1,8 C 74 % 87 % 47 % 1022,5 hPa 0,0 l/m 2,9 km/h (1 Bft) W-SW 247 0 min 7,7 C 14,0 C 4,2 km/h (1 Bft)
23.10.2015 12:41 12,2 C 22,9 C 11,5 C 14,1 C 14,1 C 1,9 C 73 % 87 % 50 % 1022,5 hPa 0,0 l/m 3,1 km/h (1 Bft) N 0 0 min 7,5 C 14,1 C 2,7 km/h (1 Bft)
23.10.2015 12:50 12,3 C 23,0 C 11,6 C 15,3 C 15,3 C 3,0 C 72 % 86 % 79 % 1022,5 hPa 0,0 l/m 4,2 km/h (1 Bft) SW 225 0 min 7,4 C 15,3 C 4,5 km/h (1 Bft)
23.10.2015 12:55 12,5 C 23,0 C 11,7 C 15,1 C 15,1 C 2,6 C 72 % 85 % 68 % 1022,1 hPa 0,0 l/m 4,5 km/h (1 Bft) W-SW 247 0 min 7,6 C 15,1 C 6,1 km/h (2 Bft)
23.10.2015 13:00 12,6 C 23,0 C 12,1 C 16,8 C 16,8 C 4,2 C 73 % 86 % 100 % 1022,1 hPa 0,0 l/m 3,7 km/h (1 Bft) SW 225 5 min 7,9 C 16,8 C 4,5 km/h (1 Bft)
23.10.2015 13:05 13,0 C 23,0 C 12,2 C 18,0 C 18,0 C 5,0 C 72 % 84 % 100 % 1022,1 hPa 0,0 l/m 3,2 km/h (1 Bft) N 360 5 min 8,1 C 18,0 C 3,7 km/h (1 Bft)
23.10.2015 13:10 13,0 C 23,0 C 12,0 C 16,8 C 16,8 C 3,8 C 72 % 85 % 100 % 1022,1 hPa 0,0 l/m 2,7 km/h (1 Bft) W-NW 292 5 min 8,1 C 16,8 C 5,1 km/h (1 Bft)
23.10.2015 13:15 12,8 C 23,0 C 11,7 C 15,3 C 15,3 C 2,5 C 70 % 84 % 66 % 1021,6 hPa 0,0 l/m 2,6 km/h (1 Bft) W-SW 247 0 min 7,5 C 15,3 C 4,8 km/h (1 Bft)
23.10.2015 13:20 12,7 C 23,0 C 11,8 C 14,8 C 14,8 C 2,1 C 72 % 85 % 55 % 1021,6 hPa 0,0 l/m 2,3 km/h (1 Bft) S 180 0 min 7,8 C 14,8 C 2,3 km/h (1 Bft)
23.10.2015 13:25 12,7 C 23,0 C 11,9 C 14,6 C 14,6 C 1,9 C 72 % 85 % 50 % 1021,6 hPa 0,0 l/m 2,3 km/h (1 Bft) W 270 0 min 7,8 C 14,6 C 3,1 km/h (1 Bft)
23.10.2015 13:30 12,7 C 23,0 C 12,0 C 15,0 C 15,0 C 2,3 C 72 % 85 % 61 % 1021,6 hPa 0,0 l/m 2,6 km/h (1 Bft) S 180 0 min 7,8 C 15,0 C 2,4 km/h (1 Bft)
23.10.2015 13:35 12,9 C 23,0 C 12,1 C 15,6 C 15,6 C 2,7 C 71 % 84 % 71 % 1021,9 hPa 0,0 l/m 3,7 km/h (1 Bft) S-SW 202 0 min 7,8 C 15,6 C 5,6 km/h (1 Bft)
23.10.2015 13:40 12,9 C 23,0 C 12,3 C 16,0 C 16,0 C 3,1 C 71 % 84 % 82 % 1021,9 hPa 0,0 l/m 3,9 km/h (1 Bft) S 180 0 min 7,8 C 16,0 C 4,3 km/h (1 Bft)
23.10.2015 13:45 13,1 C 23,0 C 12,3 C 16,2 C 16,2 C 3,1 C 71 % 83 % 82 % 1021,9 hPa 0,0 l/m 3,9 km/h (1 Bft) W 270 0 min 8,0 C 16,2 C 7,7 km/h (2 Bft)
23.10.2015 13:50 13,1 C 23,0 C 12,3 C 15,5 C 15,5 C 2,4 C 70 % 83 % 63 % 1021,9 hPa 0,0 l/m 4,2 km/h (1 Bft) S 180 0 min 7,8 C 15,5 C 6,4 km/h (2 Bft)
23.10.2015 13:55 12,9 C 23,0 C 12,4 C 15,4 C 15,4 C 2,5 C 71 % 84 % 66 % 1021,9 hPa 0,0 l/m 3,4 km/h (1 Bft) W 270 0 min 7,8 C 15,4 C 4,8 km/h (1 Bft)
23.10.2015 14:00 13,1 C 23,0 C 12,4 C 15,8 C 15,8 C 2,7 C 71 % 83 % 71 % 1021,9 hPa 0,0 l/m 2,4 km/h (1 Bft) W-SW 247 0 min 8,0 C 15,8 C 1,6 km/h (1 Bft)
23.10.2015 14:05 13,1 C 23,0 C 12,3 C 15,5 C 15,5 C 2,4 C 70 % 82 % 63 % 1021,9 hPa 0,0 l/m 2,3 km/h (1 Bft) S 180 0 min 7,8 C 15,5 C 3,1 km/h (1 Bft)
23.10.2015 14:10 13,1 C 23,0 C 12,4 C 15,6 C 15,6 C 2,5 C 71 % 83 % 66 % 1021,9 hPa 0,0 l/m 2,3 km/h (1 Bft) SW 225 0 min 8,0 C 15,6 C 8,5 km/h (2 Bft)
23.10.2015 14:15 13,1 C 23,0 C 12,4 C 15,4 C 15,4 C 2,3 C 71 % 82 % 61 % 1021,9 hPa 0,0 l/m 3,2 km/h (1 Bft) SW 225 0 min 8,0 C 15,4 C 11,6 km/h (2 Bft)
23.10.2015 14:20 13,1 C 23,0 C 12,4 C 15,5 C 15,5 C 2,4 C 70 % 81 % 63 % 1021,9 hPa 0,0 l/m 4,2 km/h (1 Bft) W-NW 292 0 min 7,8 C 15,5 C 4,3 km/h (1 Bft)
23.10.2015 14:25 13,1 C 23,0 C 12,5 C 15,2 C 15,2 C 2,1 C 70 % 81 % 55 % 1021,9 hPa 0,0 l/m 3,9 km/h (1 Bft) S-SW 202 0 min 7,8 C 15,2 C 4,8 km/h (1 Bft)
23.10.2015 14:30 13,1 C 23,0 C 12,4 C 15,1 C 15,1 C 2,0 C 70 % 81 % 53 % 1021,9 hPa 0,0 l/m 2,7 km/h (1 Bft) S-SW 202 0 min 7,8 C 15,1 C 2,1 km/h (1 Bft)
23.10.2015 14:35 13,1 C 23,0 C 12,4 C 15,0 C 15,0 C 1,9 C 71 % 82 % 50 % 1021,8 hPa 0,0 l/m 2,1 km/h (1 Bft) NW 315 0 min 8,0 C 15,0 C 4,8 km/h (1 Bft)
23.10.2015 14:40 13,1 C 23,0 C 12,4 C 14,9 C 14,9 C 1,8 C 71 % 82 % 47 % 1021,8 hPa 0,0 l/m 1,8 km/h (1 Bft) SW 225 0 min 8,0 C 14,9 C 4,5 km/h (1 Bft)
23.10.2015 14:45 13,1 C 23,0 C 12,5 C 14,8 C 14,8 C 1,7 C 71 % 82 % 45 % 1021,8 hPa 0,0 l/m 2,1 km/h (1 Bft) W 270 0 min 8,0 C 14,8 C 4,5 km/h (1 Bft)
23.10.2015 14:50 13,1 C 23,0 C 12,4 C 14,7 C 14,7 C 1,6 C 71 % 82 % 42 % 1021,8 hPa 0,0 l/m 2,7 km/h (1 Bft) S-SO 157 0 min 8,0 C 14,7 C 3,7 km/h (1 Bft)
23.10.2015 14:55 13,1 C 23,0 C 12,4 C 14,7 C 14,7 C 1,6 C 71 % 82 % 42 % 1022,0 hPa 0,0 l/m 2,9 km/h (1 Bft) S 180 0 min 8,0 C 14,7 C 5,3 km/h (1 Bft)
23.10.2015 15:00 13,0 C 23,0 C 12,5 C 14,6 C 14,6 C 1,6 C 71 % 82 % 42 % 1022,0 hPa 0,0 l/m 2,7 km/h (1 Bft) W-SW 247 0 min 7,9 C 14,6 C 1,9 km/h (1 Bft)
23.10.2015 15:05 13,1 C 23,0 C 12,4 C 14,5 C 14,5 C 1,4 C 71 % 82 % 37 % 1022,0 hPa 0,0 l/m 2,1 km/h (1 Bft) SW 225 0 min 8,0 C 14,5 C 4,7 km/h (1 Bft)
23.10.2015 15:10 13,0 C 23,1 C 12,4 C 14,5 C 14,5 C 1,5 C 71 % 82 % 39 % 1022,0 hPa 0,0 l/m 2,1 km/h (1 Bft) SW 225 0 min 7,9 C 14,5 C 0,0 km/h (0 Bft)
23.10.2015 15:15 13,1 C 23,1 C 12,4 C 14,6 C 14,6 C 1,5 C 72 % 82 % 39 % 1021,6 hPa 0,0 l/m 2,1 km/h (1 Bft) W 270 0 min 8,2 C 14,6 C 2,4 km/h (1 Bft)
23.10.2015 15:20 13,1 C 23,1 C 12,5 C 14,7 C 14,7 C 1,6 C 71 % 82 % 42 % 1021,6 hPa 0,0 l/m 1,9 km/h (1 Bft) S 180 0 min 8,0 C 14,7 C 3,9 km/h (1 Bft)
23.10.2015 15:25 13,0 C 23,1 C 12,4 C 14,5 C 14,5 C 1,5 C 71 % 81 % 39 % 1021,6 hPa 0,0 l/m 2,9 km/h (1 Bft) W-SW 247 0 min 7,9 C 14,5 C 5,5 km/h (1 Bft)
23.10.2015 15:30 13,1 C 23,1 C 12,5 C 14,5 C 14,5 C 1,4 C 71 % 81 % 37 % 1021,6 hPa 0,0 l/m 3,5 km/h (1 Bft) W-SW 247 0 min 8,0 C 14,5 C 10,8 km/h (2 Bft)
23.10.2015 15:35 13,2 C 23,1 C 12,7 C 15,2 C 15,2 C 2,0 C 71 % 81 % 53 % 1021,3 hPa 0,0 l/m 3,9 km/h (1 Bft) S 180 0 min 8,1 C 15,2 C 2,4 km/h (1 Bft)
23.10.2015 15:41 13,5 C 23,1 C 12,8 C 15,8 C 15,8 C 2,3 C 71 % 81 % 61 % 1021,3 hPa 0,0 l/m 3,9 km/h (1 Bft) N 0 0 min 8,3 C 15,8 C 5,8 km/h (2 Bft)
23.10.2015 15:50 13,8 C 23,1 C 12,9 C 17,2 C 17,2 C 3,4 C 71 % 81 % 89 % 1021,3 hPa 0,0 l/m 2,7 km/h (1 Bft) S 180 9 min 8,6 C 17,2 C 3,5 km/h (1 Bft)
23.10.2015 15:55 13,8 C 23,0 C 12,8 C 16,3 C 16,3 C 2,5 C 70 % 81 % 66 % 1021,8 hPa 0,0 l/m 3,1 km/h (1 Bft) W-SW 247 0 min 8,4 C 16,3 C 11,1 km/h (2 Bft)
23.10.2015 16:00 13,6 C 23,1 C 12,7 C 15,5 C 15,5 C 1,9 C 70 % 81 % 50 % 1021,8 hPa 0,0 l/m 4,0 km/h (1 Bft) SW 225 0 min 8,2 C 15,5 C 3,9 km/h (1 Bft)
23.10.2015 16:05 13,3 C 23,1 C 12,4 C 14,8 C 14,8 C 1,5 C 70 % 81 % 39 % 1021,8 hPa 0,0 l/m 2,6 km/h (1 Bft) S-SO 157 0 min 7,9 C 14,8 C 0,0 km/h (0 Bft)
23.10.2015 16:10 13,2 C 23,1 C 12,3 C 14,6 C 14,6 C 1,4 C 71 % 81 % 37 % 1021,8 hPa 0,0 l/m 1,8 km/h (1 Bft) W-SW 247 0 min 8,1 C 14,6 C 3,1 km/h (1 Bft)
23.10.2015 16:15 13,1 C 23,1 C 12,3 C 14,4 C 14,4 C 1,3 C 71 % 82 % 34 % 1021,9 hPa 0,0 l/m 1,8 km/h (1 Bft) SW 225 0 min 8,0 C 14,4 C 2,6 km/h (1 Bft)
23.10.2015 16:20 13,1 C 23,1 C 12,3 C 14,3 C 14,3 C 1,2 C 71 % 82 % 32 % 1021,9 hPa 0,0 l/m 1,8 km/h (1 Bft) W-SW 247 0 min 8,0 C 14,3 C 0,0 km/h (0 Bft)
23.10.2015 16:25 12,9 C 23,1 C 12,3 C 14,2 C 14,2 C 1,3 C 72 % 82 % 34 % 1021,9 hPa 0,0 l/m 0,8 km/h (0 Bft) SW 225 0 min 8,0 C 14,2 C 0,0 km/h (0 Bft)
23.10.2015 16:30 12,9 C 23,1 C 12,1 C 14,1 C 14,1 C 1,2 C 72 % 83 % 32 % 1021,9 hPa 0,0 l/m 1,0 km/h (0 Bft) S 180 0 min 8,0 C 14,1 C 3,1 km/h (1 Bft)
23.10.2015 16:35 12,8 C 23,1 C 12,0 C 13,8 C 13,8 C 1,0 C 72 % 82 % 26 % 1022,1 hPa 0,0 l/m 1,8 km/h (1 Bft) NW 315 0 min 7,9 C 13,8 C 4,0 km/h (1 Bft)
23.10.2015 16:40 12,7 C 23,1 C 12,0 C 13,6 C 13,6 C 0,9 C 72 % 83 % 24 % 1022,1 hPa 0,0 l/m 2,1 km/h (1 Bft) SW 225 0 min 7,8 C 13,6 C 2,9 km/h (1 Bft)
23.10.2015 16:45 12,7 C 23,1 C 11,9 C 13,5 C 13,5 C 0,8 C 72 % 82 % 21 % 1022,1 hPa 0,0 l/m 2,3 km/h (1 Bft) S 180 0 min 7,8 C 13,5 C 3,2 km/h (1 Bft)
23.10.2015 16:50 12,7 C 23,1 C 11,8 C 13,3 C 13,3 C 0,6 C 72 % 83 % 16 % 1022,1 hPa 0,0 l/m 2,1 km/h (1 Bft) W-SW 247 0 min 7,8 C 13,3 C 0,0 km/h (0 Bft)
23.10.2015 16:55 12,5 C 23,1 C 11,7 C 13,0 C 13,0 C 0,5 C 72 % 83 % 13 % 1021,6 hPa 0,0 l/m 1,8 km/h (1 Bft) W-SW 247 0 min 7,6 C 13,0 C 2,7 km/h (1 Bft)
23.10.2015 17:00 12,5 C 23,1 C 11,7 C 13,0 C 13,0 C 0,5 C 73 % 83 % 13 % 1021,6 hPa 0,0 l/m 1,1 km/h (1 Bft) S 180 0 min 7,8 C 13,0 C 0,0 km/h (0 Bft)
23.10.2015 17:05 12,4 C 23,1 C 11,6 C 12,9 C 12,9 C 0,5 C 73 % 84 % 13 % 1021,6 hPa 0,0 l/m 0,6 km/h (0 Bft) S-SO 157 0 min 7,7 C 12,9 C 3,2 km/h (1 Bft)
23.10.2015 17:10 12,3 C 23,1 C 11,7 C 12,8 C 12,8 C 0,5 C 73 % 84 % 13 % 1021,6 hPa 0,0 l/m 1,0 km/h (0 Bft) S-SW 202 0 min 7,6 C 12,8 C 2,9 km/h (1 Bft)
23.10.2015 17:15 12,3 C 23,1 C 11,6 C 12,7 C 12,7 C 0,4 C 74 % 84 % 11 % 1022,0 hPa 0,0 l/m 1,6 km/h (1 Bft) W-SW 247 0 min 7,8 C 12,7 C 1,8 km/h (1 Bft)
23.10.2015 17:20 12,1 C 23,1 C 11,5 C 12,7 C 12,7 C 0,6 C 74 % 84 % 16 % 1022,0 hPa 0,0 l/m 1,4 km/h (1 Bft) W-SW 247 0 min 7,6 C 12,7 C 2,3 km/h (1 Bft)
23.10.2015 17:25 12,0 C 23,1 C 11,4 C 12,5 C 12,5 C 0,5 C 74 % 84 % 13 % 1022,0 hPa 0,0 l/m 0,8 km/h (0 Bft) W-SW 247 0 min 7,5 C 12,5 C 0,0 km/h (0 Bft)
23.10.2015 17:30 12,0 C 23,1 C 11,5 C 12,4 C 12,4 C 0,4 C 74 % 84 % 11 % 1022,0 hPa 0,0 l/m 0,8 km/h (0 Bft) W-SW 247 0 min 7,5 C 12,4 C 2,1 km/h (1 Bft)
23.10.2015 17:35 11,9 C 23,1 C 11,5 C 12,4 C 12,4 C 0,5 C 75 % 85 % 13 % 1022,2 hPa 0,0 l/m 1,1 km/h (1 Bft) W-SW 247 0 min 7,6 C 12,4 C 2,9 km/h (1 Bft)
23.10.2015 17:40 11,7 C 23,1 C 11,3 C 12,1 C 12,1 C 0,4 C 75 % 84 % 11 % 1022,2 hPa 0,0 l/m 0,6 km/h (0 Bft) S-SW 202 5 min 7,4 C 12,1 C 0,0 km/h (0 Bft)
23.10.2015 17:45 11,6 C 23,1 C 11,1 C 11,6 C 11,6 C 0,0 C 75 % 85 % 0 % 1022,2 hPa 0,0 l/m 0,5 km/h (0 Bft) W-SW 247 0 min 7,3 C 11,6 C 3,4 km/h (1 Bft)
23.10.2015 17:50 11,5 C 23,1 C 11,0 C 11,4 C 11,2 C 0,0 C 75 % 85 % 0 % 1022,2 hPa 0,0 l/m 0,5 km/h (0 Bft) W 270 0 min 7,2 C 11,2 C 0,0 km/h (0 Bft)
23.10.2015 17:55 11,2 C 23,2 C 10,7 C 11,0 C 10,6 C 0,0 C 75 % 85 % 0 % 1022,1 hPa 0,0 l/m 0,3 km/h (0 Bft) W-SW 247 0 min 6,9 C 10,6 C 0,0 km/h (0 Bft)
23.10.2015 18:00 11,1 C 23,2 C 10,4 C 10,8 C 10,3 C 0,0 C 75 % 85 % 0 % 1022,1 hPa 0,0 l/m 0,0 km/h (0 Bft) W 270 0 min 6,8 C 10,3 C 0,0 km/h (0 Bft)
23.10.2015 18:05 10,6 C 23,2 C 10,0 C 10,3 C 9,8 C 0,0 C 75 % 85 % 0 % 1022,1 hPa 0,0 l/m 0,0 km/h (0 Bft) O-NO 67 0 min 6,4 C 9,8 C 0,0 km/h (0 Bft)
23.10.2015 18:10 10,4 C 23,2 C 9,7 C 10,1 C 9,5 C 0,0 C 76 % 85 % 0 % 1022,1 hPa 0,0 l/m 0,0 km/h (0 Bft) O-NO 67 0 min 6,4 C 9,5 C 0,0 km/h (0 Bft)
23.10.2015 18:15 10,0 C 23,2 C 9,3 C 9,7 C 9,0 C 0,0 C 77 % 86 % 0 % 1022,1 hPa 0,0 l/m 0,0 km/h (0 Bft) O-NO 67 0 min 6,2 C 9,0 C 0,0 km/h (0 Bft)
23.10.2015 18:20 9,9 C 23,2 C 9,3 C 9,5 C 8,8 C 0,0 C 77 % 87 % 0 % 1022,1 hPa 0,0 l/m 0,0 km/h (0 Bft) O-NO 67 0 min 6,1 C 8,8 C 0,0 km/h (0 Bft)
23.10.2015 18:25 9,5 C 23,3 C 8,8 C 9,1 C 8,4 C 0,0 C 78 % 87 % 0 % 1022,1 hPa 0,0 l/m 0,0 km/h (0 Bft) O-NO 67 0 min 5,9 C 8,4 C 0,0 km/h (0 Bft)
23.10.2015 18:30 9,3 C 23,3 C 8,8 C 8,9 C 8,2 C 0,0 C 78 % 87 % 0 % 1022,1 hPa 0,0 l/m 0,0 km/h (0 Bft) SW 225 0 min 5,7 C 8,2 C 0,0 km/h (0 Bft)
23.10.2015 18:35 8,8 C 23,3 C 8,4 C 8,5 C 7,8 C 0,0 C 78 % 87 % 0 % 1022,4 hPa 0,0 l/m 0,0 km/h (0 Bft) SW 225 0 min 5,2 C 7,8 C 0,0 km/h (0 Bft)
23.10.2015 18:41 8,6 C 23,3 C 8,3 C 8,3 C 7,6 C 0,0 C 79 % 88 % 0 % 1022,4 hPa 0,0 l/m 0,0 km/h (0 Bft) N 0 0 min 5,2 C 7,6 C 0,0 km/h (0 Bft)
23.10.2015 18:50 8,1 C 23,3 C 7,9 C 7,8 C 7,2 C 0,0 C 79 % 88 % 0 % 1022,4 hPa 0,0 l/m 0,0 km/h (0 Bft) SW 225 0 min 4,7 C 7,2 C 0,0 km/h (0 Bft)
23.10.2015 18:55 7,7 C 23,3 C 7,6 C 7,5 C 7,0 C 0,0 C 80 % 88 % 0 % 1022,4 hPa 0,0 l/m 0,0 km/h (0 Bft) O 90 0 min 4,5 C 7,0 C 0,0 km/h (0 Bft)
23.10.2015 19:00 7,5 C 23,4 C 7,6 C 7,3 C 7,0 C 0,0 C 81 % 89 % 0 % 1022,4 hPa 0,0 l/m 0,0 km/h (0 Bft) O 90 0 min 4,5 C 7,0 C 0,0 km/h (0 Bft)
23.10.2015 19:05 7,2 C 23,4 C 7,6 C 7,1 C 7,0 C 0,0 C 81 % 89 % 0 % 1022,4 hPa 0,0 l/m 0,0 km/h (0 Bft) O-NO 67 0 min 4,2 C 7,0 C 0,0 km/h (0 Bft)
23.10.2015 19:10 7,2 C 23,4 C 7,5 C 7,1 C 6,9 C 0,0 C 81 % 90 % 0 % 1022,4 hPa 0,0 l/m 0,0 km/h (0 Bft) O-NO 67 0 min 4,2 C 6,9 C 0,0 km/h (0 Bft)
23.10.2015 19:15 6,9 C 23,5 C 7,3 C 6,9 C 6,9 C 0,0 C 82 % 89 % 0 % 1022,8 hPa 0,0 l/m 0,0 km/h (0 Bft) O-NO 67 0 min 4,0 C 6,9 C 0,0 km/h (0 Bft)
23.10.2015 19:20 6,8 C 23,5 C 7,2 C 6,9 C 6,9 C 0,1 C 82 % 90 % 0 % 1022,8 hPa 0,0 l/m 0,0 km/h (0 Bft) O-NO 67 0 min 3,9 C 6,9 C 0,0 km/h (0 Bft)
23.10.2015 19:25 6,6 C 23,5 C 7,0 C 6,7 C 6,7 C 0,1 C 83 % 90 % 0 % 1022,8 hPa 0,0 l/m 0,0 km/h (0 Bft) O-NO 67 0 min 3,9 C 6,7 C 0,0 km/h (0 Bft)
23.10.2015 19:30 6,6 C 23,5 C 7,1 C 6,7 C 6,7 C 0,1 C 83 % 90 % 0 % 1022,8 hPa 0,0 l/m 0,0 km/h (0 Bft) O-NO 67 0 min 3,9 C 6,7 C 0,0 km/h (0 Bft)
23.10.2015 19:35 6,4 C 23,4 C 6,9 C 6,4 C 6,4 C 0,0 C 83 % 90 % 0 % 1022,6 hPa 0,0 l/m 0,0 km/h (0 Bft) O-NO 67 0 min 3,7 C 6,4 C 0,0 km/h (0 Bft)
23.10.2015 19:40 6,3 C 23,4 C 6,9 C 6,3 C 6,2 C 0,0 C 83 % 90 % 0 % 1022,6 hPa 0,0 l/m 0,0 km/h (0 Bft) O-NO 67 0 min 3,6 C 6,2 C 0,0 km/h (0 Bft)
23.10.2015 19:45 6,0 C 23,4 C 6,7 C 6,0 C 6,0 C 0,0 C 83 % 90 % 0 % 1022,6 hPa 0,0 l/m 0,0 km/h (0 Bft) O-NO 67 0 min 3,3 C 6,0 C 0,0 km/h (0 Bft)
23.10.2015 19:50 5,8 C 23,4 C 6,4 C 5,9 C 5,9 C 0,1 C 83 % 90 % 0 % 1022,6 hPa 0,0 l/m 0,0 km/h (0 Bft) O-NO 67 0 min 3,1 C 5,9 C 0,0 km/h (0 Bft)
23.10.2015 19:55 5,7 C 23,4 C 6,4 C 5,9 C 5,9 C 0,2 C 84 % 90 % 0 % 1022,7 hPa 0,0 l/m 0,0 km/h (0 Bft) O-NO 67 0 min 3,2 C 5,9 C 0,0 km/h (0 Bft)
23.10.2015 20:00 5,6 C 23,5 C 6,4 C 5,7 C 5,7 C 0,1 C 84 % 90 % 0 % 1022,7 hPa 0,0 l/m 0,0 km/h (0 Bft) O-NO 67 0 min 3,1 C 5,7 C 0,0 km/h (0 Bft)
23.10.2015 20:05 5,5 C 23,4 C 6,3 C 5,6 C 5,6 C 0,1 C 84 % 90 % 0 % 1022,7 hPa 0,0 l/m 0,0 km/h (0 Bft) O-NO 67 0 min 3,0 C 5,6 C 0,0 km/h (0 Bft)
23.10.2015 20:10 5,3 C 23,4 C 6,2 C 5,5 C 5,5 C 0,2 C 84 % 90 % 0 % 1022,7 hPa 0,0 l/m 0,0 km/h (0 Bft) O-NO 67 0 min 2,8 C 5,5 C 0,0 km/h (0 Bft)
23.10.2015 20:15 5,3 C 23,4 C 6,3 C 5,4 C 5,4 C 0,1 C 84 % 90 % 0 % 1023,4 hPa 0,0 l/m 0,0 km/h (0 Bft) S 180 0 min 2,8 C 5,4 C 0,0 km/h (0 Bft)
23.10.2015 20:20 5,1 C 23,4 C 6,2 C 5,2 C 5,2 C 0,1 C 84 % 90 % 0 % 1023,4 hPa 0,0 l/m 0,0 km/h (0 Bft) W-SW 247 0 min 2,6 C 5,2 C 0,0 km/h (0 Bft)
23.10.2015 20:25 4,9 C 23,4 C 6,1 C 5,1 C 5,1 C 0,2 C 84 % 90 % 0 % 1023,4 hPa 0,0 l/m 0,0 km/h (0 Bft) O-NO 67 0 min 2,4 C 5,1 C 0,0 km/h (0 Bft)
23.10.2015 20:30 4,8 C 23,4 C 5,9 C 5,1 C 5,1 C 0,3 C 85 % 90 % 0 % 1023,4 hPa 0,0 l/m 0,0 km/h (0 Bft) O-NO 67 0 min 2,5 C 5,1 C 0,0 km/h (0 Bft)
23.10.2015 20:35 4,8 C 23,3 C 5,9 C 5,1 C 5,1 C 0,3 C 85 % 90 % 0 % 1022,9 hPa 0,0 l/m 0,0 km/h (0 Bft) O-NO 67 0 min 2,5 C 5,1 C 0,0 km/h (0 Bft)
23.10.2015 20:40 4,7 C 23,3 C 5,9 C 4,8 C 4,8 C 0,1 C 85 % 90 % 0 % 1022,9 hPa 0,0 l/m 0,0 km/h (0 Bft) O-NO 67 0 min 2,4 C 4,8 C 0,0 km/h (0 Bft)
23.10.2015 20:45 4,5 C 23,4 C 6,0 C 4,6 C 4,6 C 0,1 C 85 % 91 % 0 % 1022,9 hPa 0,0 l/m 0,0 km/h (0 Bft) SW 225 0 min 2,2 C 4,6 C 0,0 km/h (0 Bft)
23.10.2015 20:50 4,4 C 23,4 C 5,9 C 4,7 C 4,7 C 0,3 C 85 % 90 % 0 % 1022,9 hPa 0,0 l/m 0,0 km/h (0 Bft) W-SW 247 0 min 2,1 C 4,7 C 0,0 km/h (0 Bft)
23.10.2015 20:55 4,3 C 23,4 C 5,7 C 4,7 C 4,7 C 0,4 C 85 % 90 % 0 % 1023,1 hPa 0,0 l/m 0,0 km/h (0 Bft) O-SO 112 0 min 2,0 C 4,7 C 0,0 km/h (0 Bft)
23.10.2015 21:00 4,3 C 23,4 C 5,7 C 4,7 C 4,7 C 0,4 C 86 % 91 % 0 % 1023,1 hPa 0,0 l/m 0,0 km/h (0 Bft) O-SO 112 0 min 2,2 C 4,7 C 0,0 km/h (0 Bft)
23.10.2015 21:05 4,3 C 23,3 C 5,4 C 4,6 C 4,6 C 0,3 C 86 % 90 % 0 % 1023,1 hPa 0,0 l/m 0,0 km/h (0 Bft) O-NO 67 0 min 2,2 C 4,6 C 0,0 km/h (0 Bft)
23.10.2015 21:10 4,1 C 23,4 C 5,3 C 4,5 C 4,5 C 0,4 C 86 % 91 % 0 % 1023,1 hPa 0,0 l/m 0,0 km/h (0 Bft) O-NO 67 0 min 2,0 C 4,5 C 0,0 km/h (0 Bft)
23.10.2015 21:15 4,1 C 23,4 C 5,3 C 4,4 C 4,4 C 0,3 C 86 % 91 % 0 % 1023,7 hPa 0,0 l/m 0,0 km/h (0 Bft) O-NO 67 0 min 2,0 C 4,4 C 0,0 km/h (0 Bft)
23.10.2015 21:20 4,0 C 23,3 C 5,2 C 4,3 C 4,3 C 0,3 C 86 % 91 % 0 % 1023,7 hPa 0,0 l/m 0,0 km/h (0 Bft) O-NO 67 0 min 1,9 C 4,3 C 0,0 km/h (0 Bft)
23.10.2015 21:25 4,0 C 23,4 C 5,2 C 4,4 C 4,4 C 0,4 C 86 % 91 % 0 % 1023,7 hPa 0,0 l/m 0,0 km/h (0 Bft) O-NO 67 0 min 1,9 C 4,4 C 0,0 km/h (0 Bft)
23.10.2015 21:30 3,9 C 23,4 C 5,2 C 4,4 C 4,4 C 0,5 C 86 % 91 % 0 % 1023,7 hPa 0,0 l/m 0,0 km/h (0 Bft) W-SW 247 0 min 1,8 C 4,4 C 0,0 km/h (0 Bft)
23.10.2015 21:35 3,9 C 23,3 C 5,2 C 4,1 C 4,1 C 0,2 C 86 % 91 % 0 % 1023,7 hPa 0,0 l/m 0,0 km/h (0 Bft) W-SW 247 0 min 1,8 C 4,1 C 0,0 km/h (0 Bft)
23.10.2015 21:41 3,7 C 23,4 C 5,1 C 4,0 C 4,0 C 0,3 C 86 % 91 % 0 % 1023,7 hPa 0,0 l/m 0,0 km/h (0 Bft) N 0 0 min 1,6 C 4,0 C 0,0 km/h (0 Bft)
23.10.2015 21:50 3,5 C 23,4 C 5,3 C 3,9 C 3,9 C 0,4 C 86 % 91 % 0 % 1023,7 hPa 0,0 l/m 0,0 km/h (0 Bft) S-SW 202 0 min 1,4 C 3,9 C 0,0 km/h (0 Bft)
23.10.2015 21:55 3,3 C 23,4 C 4,9 C 3,8 C 3,8 C 0,5 C 86 % 91 % 0 % 1023,0 hPa 0,0 l/m 0,0 km/h (0 Bft) O 90 0 min 1,2 C 3,8 C 0,0 km/h (0 Bft)
23.10.2015 22:00 3,3 C 23,4 C 4,9 C 3,8 C 3,8 C 0,5 C 86 % 91 % 0 % 1023,0 hPa 0,0 l/m 0,0 km/h (0 Bft) O 90 0 min 1,2 C 3,8 C 0,0 km/h (0 Bft)
23.10.2015 22:05 3,3 C 23,4 C 4,8 C 3,8 C 3,8 C 0,5 C 87 % 91 % 0 % 1023,0 hPa 0,0 l/m 0,0 km/h (0 Bft) O-NO 67 0 min 1,3 C 3,8 C 0,0 km/h (0 Bft)
23.10.2015 22:10 3,4 C 23,4 C 4,8 C 4,0 C 4,0 C 0,6 C 87 % 91 % 0 % 1023,0 hPa 0,0 l/m 0,0 km/h (0 Bft) O-NO 67 0 min 1,4 C 4,0 C 0,0 km/h (0 Bft)
23.10.2015 22:15 3,6 C 23,4 C 4,9 C 4,3 C 4,3 C 0,7 C 87 % 91 % 0 % 1023,0 hPa 0,0 l/m 0,0 km/h (0 Bft) O-NO 67 0 min 1,6 C 4,3 C 0,0 km/h (0 Bft)
23.10.2015 22:20 3,7 C 23,4 C 4,9 C 4,3 C 4,3 C 0,6 C 88 % 91 % 0 % 1023,0 hPa 0,0 l/m 0,0 km/h (0 Bft) O 90 0 min 1,9 C 4,3 C 0,0 km/h (0 Bft)
23.10.2015 22:25 3,6 C 23,4 C 4,9 C 4,3 C 4,3 C 0,7 C 88 % 91 % 0 % 1023,0 hPa 0,0 l/m 0,0 km/h (0 Bft) O 90 0 min 1,8 C 4,3 C 0,0 km/h (0 Bft)
23.10.2015 22:30 3,6 C 23,3 C 4,9 C 4,1 C 4,1 C 0,5 C 88 % 91 % 0 % 1023,0 hPa 0,0 l/m 0,0 km/h (0 Bft) O 90 0 min 1,8 C 4,1 C 0,0 km/h (0 Bft)
23.10.2015 22:35 3,5 C 23,3 C 4,9 C 3,9 C 3,9 C 0,4 C 87 % 91 % 0 % 1023,2 hPa 0,0 l/m 0,0 km/h (0 Bft) W-SW 247 0 min 1,5 C 3,9 C 0,0 km/h (0 Bft)
23.10.2015 22:40 3,3 C 23,3 C 4,8 C 3,7 C 3,7 C 0,4 C 87 % 91 % 0 % 1023,2 hPa 0,0 l/m 0,0 km/h (0 Bft) W-SW 247 0 min 1,3 C 3,7 C 0,0 km/h (0 Bft)
23.10.2015 22:45 3,1 C 23,3 C 4,6 C 3,5 C 3,5 C 0,4 C 87 % 90 % 0 % 1023,2 hPa 0,0 l/m 0,0 km/h (0 Bft) W-SW 247 0 min 1,2 C 3,5 C 0,0 km/h (0 Bft)
23.10.2015 22:50 3,1 C 23,2 C 4,7 C 3,4 C 3,4 C 0,3 C 87 % 91 % 0 % 1023,2 hPa 0,0 l/m 0,0 km/h (0 Bft) W-SW 247 0 min 1,2 C 3,4 C 0,0 km/h (0 Bft)
23.10.2015 22:55 3,0 C 23,2 C 4,5 C 3,2 C 3,2 C 0,2 C 87 % 90 % 0 % 1023,1 hPa 0,0 l/m 0,0 km/h (0 Bft) W-SW 247 0 min 1,1 C 3,2 C 0,0 km/h (0 Bft)
23.10.2015 23:00 2,9 C 23,2 C 4,4 C 3,1 C 3,1 C 0,2 C 87 % 90 % 0 % 1023,1 hPa 0,0 l/m 0,0 km/h (0 Bft) W-SW 247 0 min 1,0 C 3,1 C 0,0 km/h (0 Bft)
23.10.2015 23:05 2,9 C 23,2 C 4,4 C 3,1 C 3,1 C 0,2 C 87 % 90 % 0 % 1023,1 hPa 0,0 l/m 0,0 km/h (0 Bft) W-SW 247 0 min 1,0 C 3,1 C 0,0 km/h (0 Bft)
23.10.2015 23:10 2,8 C 23,2 C 4,5 C 3,1 C 3,1 C 0,3 C 87 % 90 % 0 % 1023,1 hPa 0,0 l/m 0,0 km/h (0 Bft) W-SW 247 0 min 0,9 C 3,1 C 0,0 km/h (0 Bft)
23.10.2015 23:15 2,7 C 23,2 C 4,4 C 3,0 C 3,0 C 0,3 C 87 % 90 % 0 % 1023,1 hPa 0,0 l/m 0,0 km/h (0 Bft) W-SW 247 0 min 0,8 C 3,0 C 0,0 km/h (0 Bft)
23.10.2015 23:20 2,7 C 23,2 C 4,4 C 3,0 C 3,0 C 0,3 C 87 % 90 % 0 % 1023,1 hPa 0,0 l/m 0,0 km/h (0 Bft) W-SW 247 0 min 0,8 C 3,0 C 0,0 km/h (0 Bft)
23.10.2015 23:25 2,5 C 23,2 C 4,2 C 3,0 C 3,0 C 0,5 C 87 % 90 % 0 % 1023,1 hPa 0,0 l/m 0,0 km/h (0 Bft) W-SW 247 0 min 0,6 C 3,0 C 0,0 km/h (0 Bft)
23.10.2015 23:30 2,4 C 23,2 C 4,2 C 2,9 C 2,9 C 0,5 C 88 % 90 % 0 % 1023,1 hPa 0,0 l/m 0,0 km/h (0 Bft) W-SW 247 0 min 0,6 C 2,9 C 0,0 km/h (0 Bft)
23.10.2015 23:35 2,4 C 23,2 C 4,2 C 2,8 C 2,8 C 0,4 C 88 % 90 % 0 % 1022,6 hPa 0,0 l/m 0,0 km/h (0 Bft) W-SW 247 0 min 0,6 C 2,8 C 0,0 km/h (0 Bft)
23.10.2015 23:40 2,4 C 23,2 C 4,3 C 2,7 C 2,7 C 0,3 C 88 % 90 % 0 % 1022,6 hPa 0,0 l/m 0,0 km/h (0 Bft) O-NO 67 0 min 0,6 C 2,7 C 0,0 km/h (0 Bft)
23.10.2015 23:45 2,5 C 23,2 C 4,1 C 3,0 C 3,0 C 0,5 C 88 % 90 % 0 % 1022,6 hPa 0,0 l/m 0,0 km/h (0 Bft) O-NO 67 0 min 0,7 C 3,0 C 0,0 km/h (0 Bft)
23.10.2015 23:50 2,7 C 23,2 C 4,1 C 3,2 C 3,2 C 0,5 C 89 % 90 % 0 % 1022,6 hPa 0,0 l/m 0,0 km/h (0 Bft) O-NO 67 0 min 1,1 C 3,2 C 0,0 km/h (0 Bft)
23.10.2015 23:55 2,7 C 23,1 C 4,1 C 3,1 C 3,1 C 0,4 C 89 % 90 % 0 % 1023,4 hPa 0,0 l/m 0,0 km/h (0 Bft) O-NO 67 0 min 1,1 C 3,1 C 0,0 km/h (0 Bft)
_ Min-Zeit 23:30 10:35 23:45 23:40 23:40 04:40 13:15 06:30 00:00 00:35 - 00:10 - - - 23:25 23:40 00:00
Minimum _ 2,4 C 22,9 C 4,1 C 2,7 C 2,7 C 0,0 C 70 % 79 % 0 % 1016,4 hPa - 0,0 km/h (0 Bft) - - - 0,6 C 2,7 C 0,0 km/h (0 Bft)
_ Max-Zeit 15:50 05:10 15:50 13:05 13:05 13:05 01:55 20:45 13:00 21:15 02:25 12:55 - - 15:50 15:50 13:05 11:55
Maximum _ 13,8 C 23,6 C 12,9 C 18,0 C 18,0 C 5,0 C 92 % 91 % 100 % 1023,7 hPa 0,7 l/m 4,5 km/h
W-SW (1 Bft)
- - 9 min 8,6 C 18,0 C 13,5 km/h
W (3 Bft)
Durchschnitt _ 8,8 C 23,2 C 9,1 C 9,8 C 9,8 C 1,0 C 84 % 85 % 20 % 1020,7 hPa #0,7 l/m 1,3 km/h (1 Bft) W-SW - #1:14 h 6,2 C 9,8 C 2,0 km/h (1 Bft)
2015 www.wetterstation-wechselburg.de